Time;durP1;ratioP1;P1;durP2;ratioP2;P2;SDS_P1;SDS_P2;PMS_P1;PMS_P2;Temp;Humidity;BMP_temperature;BMP_pressure;BME280_temperature;BME280_humidity;BME280_pressure;Samples;Min_cycle;Max_cycle;Signal;HPM_P1;HPM_P2
2022/01/03 00:00:11;;;;;;;1.23;0.60;;;;;;;;;;4959194;29;20190;-82
2022/01/03 00:02:40;;;;;;;0.57;0.57;;;;;;;;;;4958755;28;20232;-82
2022/01/03 00:05:09;;;;;;;0.50;0.50;;;;;;;;;;4959213;29;20568;-82
2022/01/03 00:07:41;;;;;;;0.40;0.40;;;;;;;;;;4958187;29;20211;-82
2022/01/03 00:10:10;;;;;;;0.60;0.60;;;;;;;;;;4958614;29;20192;-82
2022/01/03 00:12:39;;;;;;;0.65;0.50;;;;;;;;;;4958940;28;20231;-82
2022/01/03 00:15:10;;;;;;;0.63;0.63;;;;;;;;;;4958647;29;20659;-81
2022/01/03 00:17:37;;;;;;;0.50;0.50;;;;;;;;;;4958446;29;20326;-81
2022/01/03 00:20:06;;;;;;;0.43;0.40;;;;;;;;;;4958382;29;20182;-82
2022/01/03 00:22:44;;;;;;;0.38;0.38;;;;;;;;;;4960305;29;22001;-81
2022/01/03 00:25:17;;;;;;;0.60;0.50;;;;;;;;;;4964798;29;20185;-81
2022/01/03 00:27:51;;;;;;;0.60;0.60;;;;;;;;;;4965394;29;20209;-81
2022/01/03 00:30:21;;;;;;;0.50;0.50;;;;;;;;;;4965221;29;20215;-81
2022/01/03 00:32:51;;;;;;;0.70;0.70;;;;;;;;;;4965375;28;20276;-81
2022/01/03 00:35:19;;;;;;;0.95;0.50;;;;;;;;;;4964919;29;20205;-81
2022/01/03 00:37:49;;;;;;;0.60;0.60;;;;;;;;;;4964239;29;20550;-80
2022/01/03 00:40:20;;;;;;;0.60;0.60;;;;;;;;;;4964892;29;20215;-81
2022/01/03 00:42:47;;;;;;;1.15;0.80;;;;;;;;;;4965345;28;20221;-81
2022/01/03 00:45:15;;;;;;;3.30;1.25;;;;;;;;;;4964370;29;20215;-81
2022/01/03 00:47:44;;;;;;;0.98;0.95;;;;;;;;;;4964159;29;20209;-81
2022/01/03 00:50:16;;;;;;;1.55;0.95;;;;;;;;;;4963983;29;20201;-81
2022/01/03 00:52:44;;;;;;;2.28;1.30;;;;;;;;;;4964393;28;20217;-81
2022/01/03 00:55:14;;;;;;;2.63;1.10;;;;;;;;;;4964207;29;20205;-81
2022/01/03 00:58:02;;;;;;;1.83;1.73;;;;;;;;;;4964120;29;20710;-81
2022/01/03 01:00:32;;;;;;;1.30;1.20;;;;;;;;;;4963366;29;20192;-81
2022/01/03 01:03:05;;;;;;;1.30;1.20;;;;;;;;;;4964548;28;20602;-80
2022/01/03 01:05:33;;;;;;;1.75;1.30;;;;;;;;;;4963876;28;20193;-80
2022/01/03 01:08:01;;;;;;;1.80;1.40;;;;;;;;;;4964026;29;20189;-81
2022/01/03 01:10:33;;;;;;;1.20;1.10;;;;;;;;;;4963382;29;20297;-80
2022/01/03 01:13:01;;;;;;;3.30;1.52;;;;;;;;;;4963472;28;20224;-80
2022/01/03 01:15:29;;;;;;;2.58;1.25;;;;;;;;;;4963829;29;20216;-80
2022/01/03 01:17:57;;;;;;;1.55;1.00;;;;;;;;;;4963771;29;20240;-81
2022/01/03 01:20:26;;;;;;;1.80;1.30;;;;;;;;;;4962450;29;20211;-81
2022/01/03 01:22:54;;;;;;;2.75;1.23;;;;;;;;;;4962414;28;20221;-81
2022/01/03 01:27:45;;;;;;;1.20;1.20;;;;;;;;;;4962974;29;20188;-81
2022/01/03 01:28:16;;;;;;;4.25;1.42;;;;;;;;;;4962918;29;20229;-81
2022/01/03 01:30:44;;;;;;;3.88;1.73;;;;;;;;;;4963047;29;20236;-81
2022/01/03 01:33:13;;;;;;;1.40;1.30;;;;;;;;;;4962905;28;20225;-80
2022/01/03 01:35:46;;;;;;;2.35;1.50;;;;;;;;;;4963072;29;20197;-80
2022/01/03 01:38:18;;;;;;;1.92;1.33;;;;;;;;;;4963206;29;20197;-81
2022/01/03 01:40:50;;;;;;;2.03;1.88;;;;;;;;;;4962879;29;20663;-81
2022/01/03 01:43:25;;;;;;;1.00;1.00;;;;;;;;;;4964118;28;20314;-80
2022/01/03 01:45:53;;;;;;;1.10;1.10;;;;;;;;;;4963202;29;20200;-81
2022/01/03 01:48:25;;;;;;;2.20;1.52;;;;;;;;;;4962796;29;20201;-81
2022/01/03 01:50:55;;;;;;;1.80;1.42;;;;;;;;;;4962714;29;20205;-80
2022/01/03 01:53:25;;;;;;;1.08;1.08;;;;;;;;;;4963408;28;20228;-80
2022/01/03 01:55:58;;;;;;;2.28;2.10;;;;;;;;;;4962477;29;20190;-80
2022/01/03 01:58:38;;;;;;;2.15;1.40;;;;;;;;;;4963347;29;20190;-80
2022/01/03 02:01:08;;;;;;;4.95;2.20;;;;;;;;;;4963046;29;20194;-81
2022/01/03 02:03:46;;;;;;;1.80;1.48;;;;;;;;;;4962864;28;20579;-81
2022/01/03 02:06:35;;;;;;;1.42;1.10;;;;;;;;;;4963731;29;20215;-81
2022/01/03 02:09:08;;;;;;;1.80;1.40;;;;;;;;;;4963709;29;20221;-81
2022/01/03 02:11:52;;;;;;;2.38;1.38;;;;;;;;;;4962729;29;20208;-80
2022/01/03 02:14:23;;;;;;;1.88;1.60;;;;;;;;;;4963048;28;20239;-80
2022/01/03 02:16:52;;;;;;;1.20;1.10;;;;;;;;;;4955889;28;20313;-81
2022/01/03 02:19:20;;;;;;;1.48;1.38;;;;;;;;;;4948011;29;20202;-80
2022/01/03 02:21:50;;;;;;;2.10;1.40;;;;;;;;;;4947338;29;20206;-81
2022/01/03 02:24:18;;;;;;;2.00;1.80;;;;;;;;;;4946840;29;20225;-85
2022/01/03 02:26:45;;;;;;;2.50;1.10;;;;;;;;;;4946690;29;20209;-81
2022/01/03 02:29:13;;;;;;;1.20;0.90;;;;;;;;;;4946493;29;20222;-81
2022/01/03 02:31:40;;;;;;;1.33;1.20;;;;;;;;;;4947409;29;20298;-81
2022/01/03 02:34:08;;;;;;;1.77;1.08;;;;;;;;;;4947998;29;20225;-81
2022/01/03 02:36:36;;;;;;;1.73;1.30;;;;;;;;;;4947053;29;20209;-81
2022/01/03 02:39:05;;;;;;;0.90;0.90;;;;;;;;;;4947777;29;20221;-80
2022/01/03 02:41:33;;;;;;;1.17;1.00;;;;;;;;;;4947629;29;20205;-80
2022/01/03 02:44:00;;;;;;;2.85;1.40;;;;;;;;;;4946802;29;20232;-80
2022/01/03 02:46:28;;;;;;;1.17;1.00;;;;;;;;;;4948150;29;20197;-81
2022/01/03 02:48:55;;;;;;;0.80;0.80;;;;;;;;;;4947260;29;20240;-81
2022/01/03 02:51:23;;;;;;;1.25;1.15;;;;;;;;;;4947165;29;20209;-80
2022/01/03 02:53:50;;;;;;;1.17;1.08;;;;;;;;;;4947356;29;20243;-81
2022/01/03 02:56:19;;;;;;;2.90;1.40;;;;;;;;;;4946126;29;20190;-80
2022/01/03 02:58:46;;;;;;;1.52;1.40;;;;;;;;;;4947721;29;20186;-80
2022/01/03 03:01:14;;;;;;;1.67;1.00;;;;;;;;;;4947804;29;20643;-81
2022/01/03 03:03:41;;;;;;;2.33;1.20;;;;;;;;;;4947343;29;20230;-81
2022/01/03 03:06:09;;;;;;;1.52;1.08;;;;;;;;;;4946689;29;20206;-81
2022/01/03 03:08:37;;;;;;;1.92;1.02;;;;;;;;;;4945616;29;20206;-82
2022/01/03 03:11:04;;;;;;;3.08;1.98;;;;;;;;;;4947168;29;20241;-81
2022/01/03 03:13:33;;;;;;;3.97;1.20;;;;;;;;;;4946195;29;20233;-81
2022/01/03 03:16:01;;;;;;;1.92;1.25;;;;;;;;;;4947385;29;20209;-81
2022/01/03 03:18:28;;;;;;;1.52;1.27;;;;;;;;;;4964910;29;20190;-82
2022/01/03 03:20:58;;;;;;;5.10;1.17;;;;;;;;;;4964642;29;20189;-81
2022/01/03 03:23:27;;;;;;;5.38;2.13;;;;;;;;;;4965513;28;20225;-81
2022/01/03 03:25:55;;;;;;;1.27;1.10;;;;;;;;;;4966608;29;20267;-81
2022/01/03 03:28:25;;;;;;;1.90;1.00;;;;;;;;;;4965686;28;20196;-82
2022/01/03 03:30:54;;;;;;;2.33;0.90;;;;;;;;;;4965977;29;20224;-81
2022/01/03 03:33:24;;;;;;;2.22;1.58;;;;;;;;;;4966710;28;20288;-81
2022/01/03 03:35:56;;;;;;;4.28;1.40;;;;;;;;;;4966936;29;20233;-81
2022/01/03 03:38:25;;;;;;;2.72;1.30;;;;;;;;;;4965383;29;20182;-81
2022/01/03 03:40:53;;;;;;;2.13;1.02;;;;;;;;;;4965986;29;20193;-81
2022/01/03 03:43:21;;;;;;;1.23;1.00;;;;;;;;;;4965649;28;20610;-81
2022/01/03 03:45:49;;;;;;;1.52;1.05;;;;;;;;;;4965433;29;20205;-81
2022/01/03 03:48:19;;;;;;;3.45;1.17;;;;;;;;;;4964303;29;20189;-81
2022/01/03 03:50:46;;;;;;;3.88;1.90;;;;;;;;;;4964422;29;20243;-81
2022/01/03 03:53:14;;;;;;;2.58;1.40;;;;;;;;;;4965895;28;20300;-81
2022/01/03 03:55:43;;;;;;;1.85;1.20;;;;;;;;;;4966364;29;20253;-81
2022/01/03 03:58:11;;;;;;;1.67;1.23;;;;;;;;;;4965748;29;20209;-80
2022/01/03 04:00:39;;;;;;;1.58;1.00;;;;;;;;;;4964725;29;20217;-81
2022/01/03 04:03:06;;;;;;;0.90;0.80;;;;;;;;;;4964615;28;20225;-81
2022/01/03 04:05:35;;;;;;;3.15;1.60;;;;;;;;;;4964946;29;20216;-81
2022/01/03 04:08:03;;;;;;;1.33;1.05;;;;;;;;;;4965909;29;20209;-81
2022/01/03 04:10:30;;;;;;;4.07;1.65;;;;;;;;;;4964730;29;20682;-81
2022/01/03 04:12:58;;;;;;;3.28;1.50;;;;;;;;;;4966389;28;20231;-81
2022/01/03 04:15:25;;;;;;;2.45;1.40;;;;;;;;;;4965189;29;20181;-81
2022/01/03 04:17:53;;;;;;;2.63;1.10;;;;;;;;;;4964907;29;20244;-81
2022/01/03 04:20:20;;;;;;;2.22;1.40;;;;;;;;;;4964907;29;20205;-81
2022/01/03 04:22:50;;;;;;;3.55;1.10;;;;;;;;;;4966296;28;20221;-81
2022/01/03 04:25:17;;;;;;;5.97;1.75;;;;;;;;;;4965581;29;20717;-81
2022/01/03 04:27:45;;;;;;;1.80;1.50;;;;;;;;;;4965681;29;20196;-81
2022/01/03 04:30:14;;;;;;;1.63;0.88;;;;;;;;;;4965340;29;20594;-81
2022/01/03 04:32:41;;;;;;;2.80;2.08;;;;;;;;;;4964648;28;20229;-81
2022/01/03 04:35:09;;;;;;;2.08;1.20;;;;;;;;;;4965422;29;20205;-81
2022/01/03 04:37:37;;;;;;;2.58;1.63;;;;;;;;;;4964736;29;20397;-80
2022/01/03 04:40:08;;;;;;;1.35;1.25;;;;;;;;;;4964276;28;20205;-80
2022/01/03 04:42:35;;;;;;;2.15;1.45;;;;;;;;;;4963654;28;20229;-80
2022/01/03 04:45:03;;;;;;;2.45;1.50;;;;;;;;;;4963634;29;20272;-80
2022/01/03 04:47:30;;;;;;;2.70;1.20;;;;;;;;;;4964013;29;20200;-79
2022/01/03 04:49:57;;;;;;;1.52;1.20;;;;;;;;;;4962903;29;20212;-80
2022/01/03 04:52:25;;;;;;;1.27;1.10;;;;;;;;;;4963681;28;20735;-80
2022/01/03 04:54:52;;;;;;;4.63;2.38;;;;;;;;;;4963378;29;20205;-80
2022/01/03 04:57:21;;;;;;;3.00;1.20;;;;;;;;;;4962979;29;20217;-80
2022/01/03 04:59:49;;;;;;;1.27;1.20;;;;;;;;;;4964510;29;20215;-80
2022/01/03 05:02:17;;;;;;;2.83;1.80;;;;;;;;;;4964074;28;20209;-81
2022/01/03 05:04:44;;;;;;;1.38;1.17;;;;;;;;;;4963804;29;20201;-81
2022/01/03 05:07:12;;;;;;;2.60;1.70;;;;;;;;;;4963745;29;20205;-81
2022/01/03 05:09:39;;;;;;;3.72;2.35;;;;;;;;;;4963120;29;20216;-80
2022/01/03 05:12:08;;;;;;;1.90;1.30;;;;;;;;;;4962315;29;20232;-81
2022/01/03 05:14:37;;;;;;;3.78;1.85;;;;;;;;;;4962193;28;20225;-81
2022/01/03 05:17:04;;;;;;;2.60;1.50;;;;;;;;;;4963660;29;20239;-80
2022/01/03 05:19:35;;;;;;;3.17;1.20;;;;;;;;;;4964617;29;20201;-80
2022/01/03 05:22:03;;;;;;;1.35;1.25;;;;;;;;;;4965152;29;20200;-81
2022/01/03 05:24:33;;;;;;;1.40;1.13;;;;;;;;;;4964038;28;20240;-82
2022/01/03 05:27:00;;;;;;;3.00;1.25;;;;;;;;;;4963729;29;20224;-82
2022/01/03 05:29:28;;;;;;;1.52;1.10;;;;;;;;;;4962733;29;20668;-80
2022/01/03 05:31:57;;;;;;;1.38;1.10;;;;;;;;;;4962969;29;20229;-81
2022/01/03 05:34:25;;;;;;;3.20;1.23;;;;;;;;;;4962603;28;20221;-80
2022/01/03 05:36:53;;;;;;;1.35;1.08;;;;;;;;;;4963777;29;20586;-80
2022/01/03 05:39:20;;;;;;;3.08;1.40;;;;;;;;;;4963264;29;20216;-80
2022/01/03 05:41:48;;;;;;;1.65;1.55;;;;;;;;;;4963137;29;20212;-80
2022/01/03 05:44:15;;;;;;;2.13;1.67;;;;;;;;;;4963333;28;20318;-80
2022/01/03 05:46:43;;;;;;;2.20;1.20;;;;;;;;;;4963596;29;20192;-80
2022/01/03 05:49:12;;;;;;;1.77;1.00;;;;;;;;;;4962190;29;20584;-81
2022/01/03 05:51:39;;;;;;;0.80;0.80;;;;;;;;;;4962677;28;20221;-80
2022/01/03 05:54:07;;;;;;;1.33;1.02;;;;;;;;;;4967087;28;20228;-81
2022/01/03 05:56:34;;;;;;;1.40;1.30;;;;;;;;;;4968932;29;20185;-81
2022/01/03 05:59:02;;;;;;;1.90;1.45;;;;;;;;;;4967650;29;20211;-81
2022/01/03 06:01:29;;;;;;;3.33;1.25;;;;;;;;;;4967311;29;20209;-81
2022/01/03 06:04:01;;;;;;;3.25;1.50;;;;;;;;;;4968126;28;20225;-81
2022/01/03 06:06:53;;;;;;;1.92;1.20;;;;;;;;;;4967201;29;20209;-81
2022/01/03 06:09:20;;;;;;;4.10;1.42;;;;;;;;;;4966209;29;20256;-82
2022/01/03 06:11:47;;;;;;;3.55;1.83;;;;;;;;;;4965540;29;20229;-81
2022/01/03 06:14:17;;;;;;;5.22;1.50;;;;;;;;;;4965184;28;20232;-81
2022/01/03 06:16:44;;;;;;;3.17;1.45;;;;;;;;;;4965057;29;20229;-81
2022/01/03 06:19:13;;;;;;;6.75;2.22;;;;;;;;;;4964756;29;20240;-81
2022/01/03 06:21:42;;;;;;;3.83;1.73;;;;;;;;;;4964994;29;20201;-81
2022/01/03 06:24:10;;;;;;;2.55;1.27;;;;;;;;;;4964486;28;20225;-80
2022/01/03 06:26:41;;;;;;;3.25;2.00;;;;;;;;;;4964777;29;20221;-81
2022/01/03 06:29:09;;;;;;;1.77;1.00;;;;;;;;;;4965045;29;20209;-80
2022/01/03 06:31:37;;;;;;;3.80;1.63;;;;;;;;;;4963037;29;20578;-80
2022/01/03 06:34:05;;;;;;;1.52;1.23;;;;;;;;;;4964328;28;20228;-82
2022/01/03 06:36:32;;;;;;;2.95;1.33;;;;;;;;;;4964669;29;20205;-81
2022/01/03 06:39:02;;;;;;;1.83;1.30;;;;;;;;;;4964783;29;20525;-81
2022/01/03 06:41:29;;;;;;;2.85;1.77;;;;;;;;;;4964993;29;20201;-81
2022/01/03 06:43:57;;;;;;;1.70;1.30;;;;;;;;;;4965754;28;20221;-81
2022/01/03 06:46:24;;;;;;;1.35;0.82;;;;;;;;;;4965240;29;20230;-81
2022/01/03 06:48:52;;;;;;;1.48;1.05;;;;;;;;;;4964396;29;20740;-81
2022/01/03 06:51:19;;;;;;;2.78;1.30;;;;;;;;;;4963749;29;20199;-80
2022/01/03 06:53:47;;;;;;;2.28;1.40;;;;;;;;;;4963620;28;20221;-80
2022/01/03 06:56:16;;;;;;;1.50;1.40;;;;;;;;;;4964007;29;20189;-81
2022/01/03 06:58:43;;;;;;;1.95;1.35;;;;;;;;;;4962583;29;20205;-82
2022/01/03 07:01:11;;;;;;;2.08;1.83;;;;;;;;;;4963273;29;20209;-81
2022/01/03 07:03:38;;;;;;;2.03;1.38;;;;;;;;;;4962954;28;20614;-80
2022/01/03 07:06:06;;;;;;;2.00;1.30;;;;;;;;;;4962276;29;20212;-80
2022/01/03 07:08:33;;;;;;;2.83;1.40;;;;;;;;;;4961615;29;20573;-80
2022/01/03 07:11:00;;;;;;;3.75;1.63;;;;;;;;;;4963198;29;20209;-80
2022/01/03 07:13:39;;;;;;;1.63;1.50;;;;;;;;;;4962016;28;20651;-79
2022/01/03 07:18:59;;;;;;;1.70;1.30;;;;;;;;;;4962645;29;20196;-80
2022/01/03 07:21:27;;;;;;;3.20;1.95;;;;;;;;;;4963010;29;20209;-82
2022/01/03 07:23:55;;;;;;;1.20;1.10;;;;;;;;;;4961255;28;20633;-80
2022/01/03 07:26:23;;;;;;;1.35;1.20;;;;;;;;;;4961716;29;20652;-82
2022/01/03 07:28:52;;;;;;;2.75;1.38;;;;;;;;;;4960982;29;20197;-79
2022/01/03 07:31:20;;;;;;;1.92;1.40;;;;;;;;;;4959787;29;20698;-81
2022/01/03 07:33:47;;;;;;;2.40;1.70;;;;;;;;;;4962803;28;20265;-80
2022/01/03 07:36:16;;;;;;;3.50;1.40;;;;;;;;;;4961923;29;20193;-80
2022/01/03 07:38:46;;;;;;;3.45;2.20;;;;;;;;;;4960435;29;20240;-81
2022/01/03 07:41:15;;;;;;;3.05;2.00;;;;;;;;;;4960481;29;20224;-80
2022/01/03 07:43:43;;;;;;;2.15;1.25;;;;;;;;;;4959636;28;20232;-80
2022/01/03 07:46:12;;;;;;;2.60;1.73;;;;;;;;;;4960330;29;20200;-80
2022/01/03 07:48:40;;;;;;;1.77;1.55;;;;;;;;;;4960824;29;20213;-79
2022/01/03 07:51:08;;;;;;;3.58;1.73;;;;;;;;;;4961123;29;20207;-80
2022/01/03 07:53:35;;;;;;;1.73;1.33;;;;;;;;;;4960830;28;20229;-81
2022/01/03 07:56:04;;;;;;;2.15;1.58;;;;;;;;;;4960486;29;20201;-80
2022/01/03 07:58:32;;;;;;;3.28;1.58;;;;;;;;;;4961718;29;20233;-80
2022/01/03 08:01:00;;;;;;;2.45;1.45;;;;;;;;;;4959723;29;20690;-80
2022/01/03 08:03:28;;;;;;;5.50;1.60;;;;;;;;;;4959600;28;20225;-81
2022/01/03 08:05:56;;;;;;;7.13;2.33;;;;;;;;;;4959532;29;20205;-80
2022/01/03 08:08:23;;;;;;;1.70;1.25;;;;;;;;;;4960660;29;20192;-80
2022/01/03 08:10:51;;;;;;;2.10;1.00;;;;;;;;;;4960746;29;20196;-80
2022/01/03 08:13:18;;;;;;;0.98;0.98;;;;;;;;;;4959508;28;20233;-80
2022/01/03 08:15:46;;;;;;;2.90;1.40;;;;;;;;;;4966750;28;20208;-80
2022/01/03 08:18:13;;;;;;;3.13;1.13;;;;;;;;;;4977351;28;20232;-80
2022/01/03 08:20:42;;;;;;;4.88;1.58;;;;;;;;;;4977180;28;20236;-80
2022/01/03 08:23:09;;;;;;;1.33;1.13;;;;;;;;;;4978315;28;20227;-81
2022/01/03 08:25:37;;;;;;;1.55;1.20;;;;;;;;;;4979292;28;20200;-81
2022/01/03 08:28:06;;;;;;;5.82;2.05;;;;;;;;;;4979290;28;20617;-81
2022/01/03 08:46:49;;;;;;;2.58;1.30;;;;;;;;;;5113465;27;20606;-80
2022/01/03 08:53:49;;;;;;;2.17;1.27;;;;;;;;;;5132948;27;20497;-82
2022/01/03 08:56:16;;;;;;;1.88;1.25;;;;;;;;;;5133576;28;20223;-81
2022/01/03 08:58:44;;;;;;;5.10;1.70;;;;;;;;;;5133822;27;20199;-81
2022/01/03 09:01:11;;;;;;;1.40;1.25;;;;;;;;;;5133997;27;20191;-81
2022/01/03 09:03:39;;;;;;;3.08;1.50;;;;;;;;;;5133174;27;20201;-82
2022/01/03 09:06:06;;;;;;;2.45;1.70;;;;;;;;;;5133510;27;20223;-81
2022/01/03 09:08:34;;;;;;;1.08;0.98;;;;;;;;;;5133361;27;20203;-81
2022/01/03 09:11:03;;;;;;;1.05;0.98;;;;;;;;;;5131189;27;20184;-82
2022/01/03 09:13:30;;;;;;;1.95;0.90;;;;;;;;;;5112483;28;20223;-82
2022/01/03 09:15:58;;;;;;;2.80;0.95;;;;;;;;;;5112024;28;20591;-81
2022/01/03 09:18:27;;;;;;;4.60;1.10;;;;;;;;;;5111703;28;20200;-81
2022/01/03 09:20:55;;;;;;;2.42;0.90;;;;;;;;;;5111315;28;20204;-81
2022/01/03 09:23:27;;;;;;;1.00;0.90;;;;;;;;;;5111890;28;20642;-81
2022/01/03 09:28:52;;;;;;;2.10;1.67;;;;;;;;;;5111574;28;20262;-81
2022/01/03 09:31:24;;;;;;;3.25;1.17;;;;;;;;;;5111997;28;20195;-82
2022/01/03 09:33:56;;;;;;;1.55;1.45;;;;;;;;;;5111877;28;20641;-82
2022/01/03 09:36:25;;;;;;;3.50;1.38;;;;;;;;;;5111355;28;20307;-81
2022/01/03 09:38:53;;;;;;;1.30;1.25;;;;;;;;;;5112673;28;20192;-81
2022/01/03 09:41:23;;;;;;;1.92;1.50;;;;;;;;;;5112722;28;20279;-81
2022/01/03 09:43:55;;;;;;;1.92;1.25;;;;;;;;;;5112206;28;20184;-81
2022/01/03 09:46:25;;;;;;;2.05;1.23;;;;;;;;;;5112034;28;20860;-82
2022/01/03 09:48:53;;;;;;;2.40;1.15;;;;;;;;;;5112153;28;20199;-82
2022/01/03 09:51:23;;;;;;;1.30;1.20;;;;;;;;;;5112602;28;20267;-82
2022/01/03 09:53:52;;;;;;;2.83;1.30;;;;;;;;;;5111694;28;20246;-82
2022/01/03 09:56:20;;;;;;;1.95;1.52;;;;;;;;;;5110041;28;20223;-82
2022/01/03 09:58:48;;;;;;;1.77;1.08;;;;;;;;;;5110555;28;20196;-82
2022/01/03 10:01:17;;;;;;;0.75;0.73;;;;;;;;;;5110351;28;20669;-80
2022/01/03 10:03:48;;;;;;;0.95;0.95;;;;;;;;;;5105126;28;20196;-81
2022/01/03 10:06:17;;;;;;;2.70;1.45;;;;;;;;;;5097116;28;20216;-82
2022/01/03 10:08:45;;;;;;;4.03;1.40;;;;;;;;;;5096621;28;20200;-81
2022/01/03 10:11:13;;;;;;;2.15;1.40;;;;;;;;;;5096515;28;20200;-81
2022/01/03 10:13:42;;;;;;;2.17;1.98;;;;;;;;;;5096492;28;20216;-81
2022/01/03 10:16:10;;;;;;;1.85;1.30;;;;;;;;;;5097255;28;20222;-81
2022/01/03 10:18:39;;;;;;;2.28;1.45;;;;;;;;;;5096404;28;20211;-81
2022/01/03 10:21:08;;;;;;;2.95;1.60;;;;;;;;;;5096706;28;20580;-81
2022/01/03 10:23:35;;;;;;;2.88;1.00;;;;;;;;;;5097498;28;20199;-82
2022/01/03 10:26:18;;;;;;;1.73;1.08;;;;;;;;;;5097226;28;22457;-83
2022/01/03 10:28:46;;;;;;;4.35;1.17;;;;;;;;;;5096830;28;20196;-83
2022/01/03 10:31:18;;;;;;;1.42;0.95;;;;;;;;;;5096740;28;20187;-82
2022/01/03 10:33:48;;;;;;;2.80;1.23;;;;;;;;;;5094935;28;20235;-82
2022/01/03 10:36:29;;;;;;;2.20;1.17;;;;;;;;;;5095361;28;20744;-82
2022/01/03 10:38:59;;;;;;;1.55;1.13;;;;;;;;;;5095382;28;20207;-81
2022/01/03 10:41:26;;;;;;;1.42;1.33;;;;;;;;;;5095595;28;20197;-81
2022/01/03 10:43:56;;;;;;;2.28;1.00;;;;;;;;;;5096304;28;20181;-82
2022/01/03 10:46:26;;;;;;;1.02;0.70;;;;;;;;;;5096216;28;20233;-82
2022/01/03 10:49:01;;;;;;;3.13;1.15;;;;;;;;;;5096246;28;20189;-81
2022/01/03 10:51:30;;;;;;;1.38;1.10;;;;;;;;;;5095524;28;20207;-81
2022/01/03 10:53:58;;;;;;;3.30;1.23;;;;;;;;;;5095894;28;20707;-82
2022/01/03 10:56:32;;;;;;;1.25;0.85;;;;;;;;;;5095605;28;20729;-81
2022/01/03 10:59:02;;;;;;;1.13;1.00;;;;;;;;;;5096133;28;20234;-83
2022/01/03 11:01:31;;;;;;;1.08;1.00;;;;;;;;;;5095937;28;20216;-84
2022/01/03 11:04:02;;;;;;;1.20;1.00;;;;;;;;;;5095629;28;20208;-83
2022/01/03 11:12:20;;;;;;;1.23;1.10;;;;;;;;;;5095448;28;20188;-83
2022/01/03 11:14:48;;;;;;;0.85;0.85;;;;;;;;;;5095013;28;20278;-83
2022/01/03 11:17:27;;;;;;;0.80;0.80;;;;;;;;;;5094625;28;20224;-83
2022/01/03 11:19:59;;;;;;;1.70;0.60;;;;;;;;;;5095471;28;20207;-82
2022/01/03 11:22:42;;;;;;;1.77;0.90;;;;;;;;;;5095618;28;20185;-83
2022/01/03 11:25:11;;;;;;;4.22;1.48;;;;;;;;;;5095540;28;20189;-83
2022/01/03 11:27:41;;;;;;;1.10;0.80;;;;;;;;;;5096421;28;20240;-83
2022/01/03 11:30:11;;;;;;;1.85;1.20;;;;;;;;;;5106951;28;20203;-83
2022/01/03 11:32:43;;;;;;;2.25;0.90;;;;;;;;;;5116151;28;20203;-82
2022/01/03 11:35:12;;;;;;;0.95;0.93;;;;;;;;;;5115836;28;20307;-82
2022/01/03 11:37:43;;;;;;;1.65;0.90;;;;;;;;;;5116541;27;20697;-82
2022/01/03 11:40:12;;;;;;;0.82;0.82;;;;;;;;;;5116450;28;20184;-82
2022/01/03 11:42:40;;;;;;;1.02;0.60;;;;;;;;;;5116188;28;20191;-81
2022/01/03 11:45:08;;;;;;;0.90;0.90;;;;;;;;;;5115854;28;20206;-81
2022/01/03 11:47:37;;;;;;;1.23;0.68;;;;;;;;;;5116160;28;20219;-81
2022/01/03 11:50:07;;;;;;;0.90;0.90;;;;;;;;;;5115756;28;20203;-81
2022/01/03 11:52:41;;;;;;;1.05;0.80;;;;;;;;;;5115778;28;20246;-81
2022/01/03 11:55:11;;;;;;;1.65;1.00;;;;;;;;;;5115779;28;20207;-81
2022/01/03 12:03:51;;;;;;;0.75;0.75;;;;;;;;;;5115524;28;20179;-82
2022/01/03 12:06:29;;;;;;;0.82;0.80;;;;;;;;;;5116770;28;20218;-81
2022/01/03 12:09:01;;;;;;;0.80;0.80;;;;;;;;;;5116671;28;20190;-81
2022/01/03 12:11:31;;;;;;;3.78;1.27;;;;;;;;;;5115631;28;20203;-82
2022/01/03 12:14:09;;;;;;;0.80;0.80;;;;;;;;;;5115617;28;20285;-82
2022/01/03 12:16:50;;;;;;;2.50;1.60;;;;;;;;;;5115318;28;20760;-82
2022/01/03 12:19:37;;;;;;;1.20;1.10;;;;;;;;;;5115297;28;20195;-82
2022/01/03 12:22:14;;;;;;;0.80;0.80;;;;;;;;;;5116039;28;20266;-81
2022/01/03 12:24:53;;;;;;;1.60;1.13;;;;;;;;;;5114740;28;20642;-81
2022/01/03 12:27:33;;;;;;;1.80;1.00;;;;;;;;;;5115106;27;20223;-81
2022/01/03 12:30:28;;;;;;;1.20;1.10;;;;;;;;;;5115350;28;20649;-81
2022/01/03 12:33:25;;;;;;;2.20;1.10;;;;;;;;;;5115669;28;20552;-81
2022/01/03 12:36:20;;;;;;;1.50;0.90;;;;;;;;;;5094126;28;20200;-81
2022/01/03 12:39:06;;;;;;;4.95;2.03;;;;;;;;;;5093443;28;20191;-84
2022/01/03 12:41:44;;;;;;;1.60;1.30;;;;;;;;;;5093264;28;20191;-83
2022/01/03 12:44:13;;;;;;;1.23;1.20;;;;;;;;;;5094979;28;20184;-81
2022/01/03 12:46:40;;;;;;;2.30;1.40;;;;;;;;;;5112233;28;20222;-82
2022/01/03 12:49:30;;;;;;;2.65;1.30;;;;;;;;;;5115734;28;20180;-81
2022/01/03 12:52:16;;;;;;;1.25;1.05;;;;;;;;;;5115530;28;20223;-81
2022/01/03 12:54:45;;;;;;;1.05;0.95;;;;;;;;;;5115248;28;20208;-82
2022/01/03 12:57:19;;;;;;;4.72;2.00;;;;;;;;;;5116051;28;20216;-81
2022/01/03 12:59:47;;;;;;;1.83;1.48;;;;;;;;;;5115065;28;20277;-81
2022/01/03 13:02:33;;;;;;;1.80;1.67;;;;;;;;;;5114683;28;20208;-82
2022/01/03 13:05:03;;;;;;;2.83;1.30;;;;;;;;;;5115192;28;20199;-81
2022/01/03 13:07:33;;;;;;;2.85;1.40;;;;;;;;;;5115738;28;20219;-82
2022/01/03 13:10:00;;;;;;;1.77;1.20;;;;;;;;;;5115706;28;20199;-82
2022/01/03 13:12:29;;;;;;;1.65;1.40;;;;;;;;;;5115625;28;20199;-81
2022/01/03 13:15:03;;;;;;;3.47;1.50;;;;;;;;;;5101541;28;20227;-81
2022/01/03 13:17:31;;;;;;;1.50;1.38;;;;;;;;;;5095164;28;20726;-82
2022/01/03 13:20:02;;;;;;;2.00;1.10;;;;;;;;;;5094924;28;20207;-82
2022/01/03 13:22:32;;;;;;;2.35;1.30;;;;;;;;;;5095232;28;20189;-81
2022/01/03 13:24:59;;;;;;;1.90;1.63;;;;;;;;;;5095218;28;20230;-82
2022/01/03 13:27:30;;;;;;;2.60;1.50;;;;;;;;;;5095025;28;20222;-81
2022/01/03 13:30:03;;;;;;;1.30;1.20;;;;;;;;;;5095568;28;20188;-82
2022/01/03 13:32:34;;;;;;;1.55;1.33;;;;;;;;;;5095153;28;20283;-82
2022/01/03 13:35:08;;;;;;;1.40;1.30;;;;;;;;;;5108222;28;20596;-82
2022/01/03 13:37:39;;;;;;;3.20;1.30;;;;;;;;;;5097345;28;20247;-82
2022/01/03 13:40:11;;;;;;;4.15;1.33;;;;;;;;;;5096590;28;20207;-82
2022/01/03 13:42:45;;;;;;;2.22;1.30;;;;;;;;;;5098594;28;20291;-82
2022/01/03 13:50:47;;;;;;;2.50;1.50;;;;;;;;;;5099448;28;20271;-82
2022/01/03 13:53:15;;;;;;;2.22;1.33;;;;;;;;;;5104980;28;20227;-83
2022/01/03 13:55:45;;;;;;;2.15;1.67;;;;;;;;;;5117049;27;20219;-82
2022/01/03 13:58:16;;;;;;;2.63;1.83;;;;;;;;;;5103254;28;20187;-82
2022/01/03 14:00:46;;;;;;;1.92;1.63;;;;;;;;;;5118070;28;20199;-83
2022/01/03 14:03:15;;;;;;;5.38;2.53;;;;;;;;;;5118969;28;20205;-82
2022/01/03 14:05:42;;;;;;;4.50;1.88;;;;;;;;;;5111285;27;20288;-82
2022/01/03 14:08:11;;;;;;;3.05;1.48;;;;;;;;;;5098420;28;20202;-82
2022/01/03 14:10:43;;;;;;;3.67;1.27;;;;;;;;;;5098650;28;20184;-82
2022/01/03 14:13:15;;;;;;;1.42;1.15;;;;;;;;;;5111755;28;20234;-82
2022/01/03 14:16:03;;;;;;;1.38;1.15;;;;;;;;;;5118292;28;20707;-81
2022/01/03 14:18:46;;;;;;;1.65;0.88;;;;;;;;;;5097021;28;20204;-83
2022/01/03 14:21:16;;;;;;;2.92;1.20;;;;;;;;;;5097699;28;20191;-82
2022/01/03 14:23:47;;;;;;;1.13;1.02;;;;;;;;;;5098151;28;20188;-82
2022/01/03 14:26:17;;;;;;;2.08;1.00;;;;;;;;;;5098215;28;20220;-83
2022/01/03 14:28:46;;;;;;;3.42;1.50;;;;;;;;;;5097539;28;20192;-81
2022/01/03 14:31:14;;;;;;;2.70;1.20;;;;;;;;;;5097125;28;20181;-80
2022/01/03 14:33:42;;;;;;;1.05;1.00;;;;;;;;;;5102378;28;20188;-81
2022/01/03 14:36:14;;;;;;;3.05;1.40;;;;;;;;;;5116678;27;20239;-81
2022/01/03 14:38:44;;;;;;;0.85;0.85;;;;;;;;;;5118057;28;20212;-81
2022/01/03 14:41:22;;;;;;;1.45;1.17;;;;;;;;;;5118039;28;20195;-81
2022/01/03 14:43:59;;;;;;;2.50;1.60;;;;;;;;;;5117434;28;20537;-81
2022/01/03 14:46:32;;;;;;;1.48;1.20;;;;;;;;;;5096862;28;20237;-81
2022/01/03 14:49:01;;;;;;;1.98;1.15;;;;;;;;;;5097213;28;20177;-81
2022/01/03 14:51:37;;;;;;;1.92;1.20;;;;;;;;;;5097062;28;20200;-81
2022/01/03 14:54:13;;;;;;;1.13;1.08;;;;;;;;;;5097946;28;20192;-81
2022/01/03 14:56:41;;;;;;;1.77;1.35;;;;;;;;;;5098087;28;20224;-81
2022/01/03 14:59:12;;;;;;;1.55;1.05;;;;;;;;;;5098463;28;20713;-81
2022/01/03 15:01:40;;;;;;;1.33;1.00;;;;;;;;;;5100999;28;20190;-81
2022/01/03 15:04:07;;;;;;;1.52;1.42;;;;;;;;;;5103996;28;20672;-81
2022/01/03 15:06:35;;;;;;;1.50;1.20;;;;;;;;;;5117318;28;20219;-81
2022/01/03 15:09:02;;;;;;;2.65;1.58;;;;;;;;;;5117549;28;20187;-81
2022/01/03 15:11:29;;;;;;;1.10;0.98;;;;;;;;;;5116972;28;20199;-81
2022/01/03 15:13:57;;;;;;;1.55;1.10;;;;;;;;;;5119762;28;20190;-80
2022/01/03 15:16:26;;;;;;;1.02;0.80;;;;;;;;;;5122684;28;20615;-80
2022/01/03 15:18:53;;;;;;;0.80;0.80;;;;;;;;;;5120345;28;20575;-80
2022/01/03 15:21:21;;;;;;;1.45;0.90;;;;;;;;;;5123654;28;20204;-80
2022/01/03 15:23:48;;;;;;;2.58;0.95;;;;;;;;;;5107901;28;20199;-80
2022/01/03 15:26:16;;;;;;;1.70;1.00;;;;;;;;;;5096308;28;20226;-80
2022/01/03 15:28:43;;;;;;;1.33;1.25;;;;;;;;;;5096072;28;20204;-81
2022/01/03 15:31:11;;;;;;;1.63;0.70;;;;;;;;;;5105301;28;20188;-80
2022/01/03 15:33:40;;;;;;;1.83;0.90;;;;;;;;;;5116563;28;20200;-80
2022/01/03 15:36:07;;;;;;;2.15;0.85;;;;;;;;;;5113389;28;20695;-81
2022/01/03 15:38:36;;;;;;;1.58;0.93;;;;;;;;;;5107072;28;20202;-81
2022/01/03 15:41:04;;;;;;;1.35;1.23;;;;;;;;;;5102442;28;20222;-81
2022/01/03 15:43:31;;;;;;;2.05;1.20;;;;;;;;;;5096534;28;20200;-81